Americus, GA

5:42 AM EST on December 05, 2016 (GMT -0500)
Griffin Bell GC | | Change Station

Elev 381 ft 32.05 °N, 84.22 °W | Updated 9 seconds ago

Overcast
Overcast
49.8 °F
Feels Like 50 °F
N
2.2
Wind Variable Wind from SW

Today
High -- | Low -- °F
--% Chance of Precip.
Yesterday
High -- | Low -- °F
Precip. -- in
Pressure 29.96 in
Visibility 1.8 miles
Clouds Overcast 200 ft
Windchill 50 °F
Dew Point 50 °F
Humidity 99%
Rainfall 0.04 in
Snow Depth Not available.
7:22 AM 5:31 PM
Waxing Crescent, 30% visible
METAR KACJ 051015Z AUTO 00000KT 1 3/4SM BR OVC002 09/09 A2996 RMK AO2
Pressure 29.96 in
Visibility 1.8 miles
Clouds Overcast 200 ft
Windchill 50 °F
Dew Point 50 °F
Humidity 99%
Rainfall 0.04 in
Snow Depth Not available.
7:22 AM 5:31 PM
Waxing Crescent, 30% visible
METAR KACJ 051015Z AUTO 00000KT 1 3/4SM BR OVC002 09/09 A2996 RMK AO2

10-Day Weather Forecast

Almanac

Astronomy

Dec. 05, 2016 Rise Set
Actual Time
Civil Twilight
Nautical Twilight
Astronomical Twilight
Moon
Length of Visible Light
Length of Day
Tomorrow will be .
, % of the Moon is Illuminated

Today's Extremes

State Highs State Lows

Community

WunderPhotos

Upload Photos

1,955,777 photos uploaded!

WunderBlog® & News

Nearby

Air Quality

  Air Quality AQ Index Pollutant
Not available.

Snow Depth

Station Depth Elevation

Earthquake Activity

City Distance Mag. Time & Date
Minimum magnitude displayed is 2.5.

Coastal Water Temperatures

Place Temperature

Stations

Nearby Weather Stations

Station Location Temp. Windchill Dew Point Humidity Wind Precip. Elev Updated Type
                   

Watches & Warnings

There are currently no watches in effect.